Time;durP1;ratioP1;P1;durP2;ratioP2;P2;SDS_P1;SDS_P2;PMS_P1;PMS_P2;Temp;Humidity;BMP_temperature;BMP_pressure;BME280_temperature;BME280_humidity;BME280_pressure;Samples;Min_cycle;Max_cycle;Signal;HPM_P1;HPM_P2
2022/11/18 00:01:36;;;;;;;;;;;11.90;75.00;;;;;;4938793;29;19919;-85
2022/11/18 00:04:01;;;;;;;;;;;11.90;75.00;;;;;;4938827;29;19914;-87
2022/11/18 00:06:28;;;;;;;;;;;11.90;75.00;;;;;;4954754;29;20025;-85
2022/11/18 00:08:54;;;;;;;;;;;11.90;75.00;;;;;;4954470;28;20371;-89
2022/11/18 00:14:19;;;;;;;;;;;11.80;75.00;;;;;;4955048;29;20279;-88
2022/11/18 00:16:54;;;;;;;;;;;11.80;75.00;;;;;;4955704;28;19914;-83
2022/11/18 00:19:22;;;;;;;;;;;11.90;75.10;;;;;;4957330;28;19958;-88
2022/11/18 00:21:47;;;;;;;;;;;11.80;75.00;;;;;;4942186;28;19911;-84
2022/11/18 00:24:13;;;;;;;;;;;11.80;75.00;;;;;;4957939;28;19925;-83
2022/11/18 00:26:39;;;;;;;;;;;11.90;75.10;;;;;;4941678;28;20013;-83
2022/11/18 00:29:05;;;;;;;;;;;11.80;75.00;;;;;;4941673;29;19926;-84
2022/11/18 00:31:30;;;;;;;;;;;11.80;75.00;;;;;;4958727;28;20397;-83
2022/11/18 00:33:56;;;;;;;;;;;11.80;75.00;;;;;;4957980;29;20411;-84
2022/11/18 00:36:22;;;;;;;;;;;11.80;75.00;;;;;;4941843;29;19911;-84
2022/11/18 00:38:47;;;;;;;;;;;11.80;75.00;;;;;;4959344;29;19914;-84
2022/11/18 00:41:14;;;;;;;;;;;11.80;75.10;;;;;;4941553;29;20282;-84
2022/11/18 00:43:40;;;;;;;;;;;11.80;75.10;;;;;;4957571;28;19915;-86
2022/11/18 00:46:06;;;;;;;;;;;11.80;75.10;;;;;;4957957;28;19949;-85
2022/11/18 00:48:32;;;;;;;;;;;11.80;75.10;;;;;;4958453;28;19929;-84
2022/11/18 00:51:05;;;;;;;;;;;11.80;75.00;;;;;;4958172;28;19910;-85
2022/11/18 00:53:30;;;;;;;;;;;11.80;75.70;;;;;;4957589;28;20021;-86
2022/11/18 00:55:56;;;;;;;;;;;11.80;75.10;;;;;;4957246;29;19960;-85
2022/11/18 00:58:21;;;;;;;;;;;11.80;75.10;;;;;;4957952;28;19919;-85
2022/11/18 01:00:49;;;;;;;;;;;11.80;75.10;;;;;;4941746;28;19922;-90
2022/11/18 01:03:15;;;;;;;;;;;11.80;75.10;;;;;;4956962;28;19941;-86
2022/11/18 01:05:42;;;;;;;;;;;11.80;75.10;;;;;;4941433;29;19914;-84
2022/11/18 01:08:08;;;;;;;;;;;11.80;75.10;;;;;;4957173;28;19922;-86
2022/11/18 01:10:34;;;;;;;;;;;11.70;75.10;;;;;;4957897;28;19921;-84
2022/11/18 01:13:18;;;;;;;;;;;11.70;75.10;;;;;;4941140;29;19914;-85
2022/11/18 01:15:51;;;;;;;;;;;11.70;75.10;;;;;;4940653;29;19986;-85
2022/11/18 01:18:17;;;;;;;;;;;11.70;75.10;;;;;;4957431;28;20015;-86
2022/11/18 01:20:44;;;;;;;;;;;11.70;75.10;;;;;;4957208;28;19921;-84
2022/11/18 01:23:10;;;;;;;;;;;11.70;75.10;;;;;;4941043;29;20016;-88
2022/11/18 01:25:36;;;;;;;;;;;11.70;75.10;;;;;;4940798;29;20005;-84
2022/11/18 01:28:02;;;;;;;;;;;11.70;75.10;;;;;;4956633;28;19929;-84
2022/11/18 01:30:28;;;;;;;;;;;11.70;75.10;;;;;;4924266;29;19914;-86
2022/11/18 01:32:53;;;;;;;;;;;11.70;75.10;;;;;;4940398;29;19918;-85
2022/11/18 01:35:19;;;;;;;;;;;11.70;75.10;;;;;;4924682;29;19938;-85
2022/11/18 01:37:45;;;;;;;;;;;11.70;75.10;;;;;;4940954;29;19994;-85
2022/11/18 01:40:11;;;;;;;;;;;11.70;75.10;;;;;;4956979;29;19953;-85
2022/11/18 01:42:37;;;;;;;;;;;11.70;75.10;;;;;;4956530;29;19965;-84
2022/11/18 01:45:08;;;;;;;;;;;11.70;75.10;;;;;;4941217;29;19921;-85
2022/11/18 01:47:36;;;;;;;;;;;11.70;75.10;;;;;;4957810;28;19926;-85
2022/11/18 01:50:02;;;;;;;;;;;11.70;75.10;;;;;;4956429;28;19993;-85
2022/11/18 01:52:28;;;;;;;;;;;11.70;75.10;;;;;;4957681;28;19915;-85
2022/11/18 01:54:56;;;;;;;;;;;11.70;75.20;;;;;;4940206;29;19915;-85
2022/11/18 01:57:23;;;;;;;;;;;11.60;75.10;;;;;;4940511;29;19957;-85
2022/11/18 01:59:52;;;;;;;;;;;11.70;75.20;;;;;;4939288;29;19972;-80
2022/11/18 02:02:18;;;;;;;;;;;11.60;75.10;;;;;;4938841;29;19914;-79
2022/11/18 02:04:46;;;;;;;;;;;11.60;75.10;;;;;;4939163;29;19915;-80
2022/11/18 02:07:12;;;;;;;;;;;11.60;75.10;;;;;;4955634;29;19917;-79
2022/11/18 02:09:38;;;;;;;;;;;11.60;75.10;;;;;;4939365;29;20379;-81
2022/11/18 02:12:04;;;;;;;;;;;11.60;75.10;;;;;;4939156;29;20017;-79
2022/11/18 02:14:32;;;;;;;;;;;11.60;75.20;;;;;;4923363;29;19926;-80
2022/11/18 02:17:15;;;;;;;;;;;11.60;75.20;;;;;;4938984;29;19922;-81
2022/11/18 02:19:53;;;;;;;;;;;11.60;75.20;;;;;;4939380;29;19915;-79
2022/11/18 02:22:22;;;;;;;;;;;11.60;75.20;;;;;;4954927;29;20421;-81
2022/11/18 02:24:47;;;;;;;;;;;11.60;75.20;;;;;;4955143;29;20370;-81
2022/11/18 02:27:32;;;;;;;;;;;11.60;75.20;;;;;;4954939;28;19918;-79
2022/11/18 02:30:01;;;;;;;;;;;11.60;75.20;;;;;;4954922;29;20351;-80
2022/11/18 02:32:53;;;;;;;;;;;11.60;75.20;;;;;;4955131;28;19918;-79
2022/11/18 02:35:23;;;;;;;;;;;11.60;75.20;;;;;;4937688;29;19914;-79
2022/11/18 02:37:58;;;;;;;;;;;11.60;75.20;;;;;;4954820;28;19970;-80
2022/11/18 02:40:27;;;;;;;;;;;11.60;75.30;;;;;;4954841;28;19918;-79
2022/11/18 02:43:02;;;;;;;;;;;11.60;75.30;;;;;;4954972;28;19918;-79
2022/11/18 02:45:29;;;;;;;;;;;11.60;75.30;;;;;;4939072;28;19915;-78
2022/11/18 02:47:56;;;;;;;;;;;11.50;75.20;;;;;;4938775;29;19922;-80
2022/11/18 02:50:24;;;;;;;;;;;11.50;75.20;;;;;;4954744;28;20049;-79
2022/11/18 02:52:53;;;;;;;;;;;11.50;75.20;;;;;;4955009;29;19910;-79
2022/11/18 02:55:20;;;;;;;;;;;11.50;75.30;;;;;;4955154;28;19921;-78
2022/11/18 02:57:46;;;;;;;;;;;11.50;75.20;;;;;;4954730;28;20065;-79
2022/11/18 03:00:12;;;;;;;;;;;11.50;75.30;;;;;;4954714;28;19921;-80
2022/11/18 03:02:43;;;;;;;;;;;11.50;75.80;;;;;;4955425;29;19994;-79
2022/11/18 03:05:13;;;;;;;;;;;11.50;75.20;;;;;;4935402;29;20009;-79
2022/11/18 03:07:42;;;;;;;;;;;11.50;75.30;;;;;;4954379;29;20510;-79
2022/11/18 03:10:08;;;;;;;;;;;11.50;75.30;;;;;;4954344;28;19937;-79
2022/11/18 03:12:40;;;;;;;;;;;11.50;75.20;;;;;;4954282;28;20021;-79
2022/11/18 03:15:13;;;;;;;;;;;11.50;75.20;;;;;;4954103;29;19922;-79
2022/11/18 03:17:57;;;;;;;;;;;11.50;75.20;;;;;;4954921;28;19914;-79
2022/11/18 03:20:29;;;;;;;;;;;11.50;75.30;;;;;;4954734;28;19918;-79
2022/11/18 03:23:09;;;;;;;;;;;11.50;75.30;;;;;;4954503;28;20331;-79
2022/11/18 03:25:34;;;;;;;;;;;11.50;75.30;;;;;;4954704;28;20356;-79
2022/11/18 03:28:13;;;;;;;;;;;11.50;75.30;;;;;;4954153;28;19919;-79
2022/11/18 03:30:42;;;;;;;;;;;11.50;75.30;;;;;;4954226;28;20353;-82
2022/11/18 03:33:10;;;;;;;;;;;11.50;75.30;;;;;;4954368;28;19918;-80
2022/11/18 03:35:38;;;;;;;;;;;11.50;75.30;;;;;;4954001;28;19965;-78
2022/11/18 03:38:07;;;;;;;;;;;11.50;75.30;;;;;;4954343;28;19969;-79
2022/11/18 03:40:34;;;;;;;;;;;11.50;75.30;;;;;;4954165;28;19972;-79
2022/11/18 03:43:08;;;;;;;;;;;11.50;75.30;;;;;;4937690;29;19911;-80
2022/11/18 03:45:41;;;;;;;;;;;11.50;75.30;;;;;;4954652;28;19938;-79
2022/11/18 03:48:13;;;;;;;;;;;11.50;75.30;;;;;;4938540;29;20337;-79
2022/11/18 03:50:41;;;;;;;;;;;11.50;75.30;;;;;;4954281;28;19922;-79
2022/11/18 03:53:08;;;;;;;;;;;11.50;75.30;;;;;;4955351;28;20344;-80
2022/11/18 03:55:39;;;;;;;;;;;11.50;75.30;;;;;;4941976;29;20026;-79
2022/11/18 03:58:20;;;;;;;;;;;11.40;75.20;;;;;;4954743;29;20422;-79
2022/11/18 04:00:48;;;;;;;;;;;11.50;75.30;;;;;;4938807;29;19914;-79
2022/11/18 04:03:14;;;;;;;;;;;11.50;75.30;;;;;;4957732;28;19961;-79
2022/11/18 04:05:42;;;;;;;;;;;11.40;75.20;;;;;;4957734;29;19914;-81
2022/11/18 04:08:13;;;;;;;;;;;11.50;75.30;;;;;;4941382;29;19918;-81
2022/11/18 04:10:48;;;;;;;;;;;11.40;75.30;;;;;;4957482;29;20287;-80
2022/11/18 04:13:17;;;;;;;;;;;11.50;75.30;;;;;;4957428;29;19946;-79
2022/11/18 04:15:43;;;;;;;;;;;11.50;75.30;;;;;;4941482;29;19923;-79
2022/11/18 04:18:09;;;;;;;;;;;11.50;75.30;;;;;;4941355;29;19925;-79
2022/11/18 04:20:36;;;;;;;;;;;11.40;75.30;;;;;;4941471;28;19910;-79
2022/11/18 04:23:02;;;;;;;;;;;11.50;75.40;;;;;;4941620;29;20330;-78
2022/11/18 04:25:28;;;;;;;;;;;11.50;75.40;;;;;;4956828;29;19946;-79
2022/11/18 04:27:54;;;;;;;;;;;11.50;75.30;;;;;;4957238;28;19973;-80
2022/11/18 04:30:20;;;;;;;;;;;11.50;75.30;;;;;;4957216;28;19914;-79
2022/11/18 04:32:46;;;;;;;;;;;11.50;75.30;;;;;;4957527;29;19915;-79
2022/11/18 04:35:11;;;;;;;;;;;11.50;75.30;;;;;;4924968;29;20272;-79
2022/11/18 04:37:37;;;;;;;;;;;11.50;75.40;;;;;;4957400;28;19961;-79
2022/11/18 04:40:03;;;;;;;;;;;11.50;75.40;;;;;;4957078;28;20291;-78
2022/11/18 04:42:29;;;;;;;;;;;11.50;75.40;;;;;;4957154;29;19914;-79
2022/11/18 04:44:55;;;;;;;;;;;11.50;75.30;;;;;;4957053;28;19921;-79
2022/11/18 04:47:20;;;;;;;;;;;11.50;75.30;;;;;;4956777;28;20034;-79
2022/11/18 04:49:46;;;;;;;;;;;11.50;75.30;;;;;;4940533;29;19937;-80
2022/11/18 04:52:12;;;;;;;;;;;11.50;75.40;;;;;;4956886;29;19998;-78
2022/11/18 04:54:38;;;;;;;;;;;11.50;75.30;;;;;;4956645;28;19922;-81
2022/11/18 04:57:04;;;;;;;;;;;11.50;75.40;;;;;;4956565;28;19915;-79
2022/11/18 04:59:30;;;;;;;;;;;11.50;75.40;;;;;;4924709;29;20291;-79
2022/11/18 05:01:56;;;;;;;;;;;11.50;75.40;;;;;;4956569;28;19915;-79
2022/11/18 05:04:23;;;;;;;;;;;11.50;75.40;;;;;;4939639;29;19915;-79
2022/11/18 05:06:49;;;;;;;;;;;11.50;75.40;;;;;;4956354;28;19910;-80
2022/11/18 05:09:16;;;;;;;;;;;11.50;75.40;;;;;;4957243;28;19922;-79
2022/11/18 05:14:26;;;;;;;;;;;11.50;75.40;;;;;;4956596;29;19922;-82
2022/11/18 05:16:52;;;;;;;;;;;11.50;75.40;;;;;;4956493;29;19922;-79
2022/11/18 05:19:19;;;;;;;;;;;11.50;75.40;;;;;;4956092;28;19914;-80
2022/11/18 05:21:45;;;;;;;;;;;11.50;75.40;;;;;;4940091;29;19910;-82
2022/11/18 05:24:11;;;;;;;;;;;11.50;75.40;;;;;;4956167;29;19966;-80
2022/11/18 05:26:36;;;;;;;;;;;11.50;75.40;;;;;;4940824;28;19915;-81
2022/11/18 05:29:02;;;;;;;;;;;11.50;75.40;;;;;;4957178;29;20352;-79
2022/11/18 05:31:28;;;;;;;;;;;11.50;75.40;;;;;;4956399;28;20374;-80
2022/11/18 05:33:54;;;;;;;;;;;11.50;75.40;;;;;;4940527;29;19922;-79
2022/11/18 05:36:20;;;;;;;;;;;11.50;75.40;;;;;;4924330;29;19914;-78
2022/11/18 05:38:46;;;;;;;;;;;11.50;75.40;;;;;;4956235;28;19915;-80
2022/11/18 05:43:09;;;;;;;;;;;11.50;75.40;;;;;;4924350;29;20320;-80
2022/11/18 05:44:02;;;;;;;;;;;11.50;75.40;;;;;;4956112;29;20050;-80
2022/11/18 05:46:28;;;;;;;;;;;11.50;75.40;;;;;;4955962;29;19911;-80
2022/11/18 05:48:54;;;;;;;;;;;11.50;75.40;;;;;;4956259;28;20275;-79
2022/11/18 05:51:20;;;;;;;;;;;11.50;75.40;;;;;;4956586;28;19915;-79
2022/11/18 05:53:46;;;;;;;;;;;11.50;75.40;;;;;;4956444;28;19918;-79
2022/11/18 05:56:31;;;;;;;;;;;11.50;75.40;;;;;;4939283;29;20303;-78
2022/11/18 05:58:58;;;;;;;;;;;11.50;75.40;;;;;;4956093;29;20304;-79
2022/11/18 06:01:31;;;;;;;;;;;11.50;75.40;;;;;;4954209;29;19910;-79
2022/11/18 06:03:58;;;;;;;;;;;11.50;75.40;;;;;;4955483;28;19914;-78
2022/11/18 06:06:24;;;;;;;;;;;11.50;75.40;;;;;;4955414;28;20260;-79
2022/11/18 06:08:58;;;;;;;;;;;11.50;75.40;;;;;;4957060;28;19973;-79
2022/11/18 06:11:24;;;;;;;;;;;11.50;75.40;;;;;;4955254;28;19914;-81
2022/11/18 06:13:59;;;;;;;;;;;11.50;75.40;;;;;;4955486;28;19917;-81
2022/11/18 06:16:26;;;;;;;;;;;11.50;75.40;;;;;;4955121;28;19929;-79
2022/11/18 06:18:52;;;;;;;;;;;11.50;75.40;;;;;;4939136;28;20005;-79
2022/11/18 06:21:18;;;;;;;;;;;11.50;75.40;;;;;;4956059;28;19949;-80
2022/11/18 06:23:44;;;;;;;;;;;11.50;75.40;;;;;;4955363;28;19919;-79
2022/11/18 06:26:11;;;;;;;;;;;11.50;75.40;;;;;;4955230;28;19915;-79
2022/11/18 06:28:38;;;;;;;;;;;11.50;75.40;;;;;;4955707;28;20013;-79
2022/11/18 06:31:04;;;;;;;;;;;11.50;75.40;;;;;;4939186;29;19977;-79
2022/11/18 06:33:30;;;;;;;;;;;11.50;75.40;;;;;;4923074;29;20327;-81
2022/11/18 06:35:56;;;;;;;;;;;11.50;75.40;;;;;;4939134;28;19953;-79
2022/11/18 06:38:24;;;;;;;;;;;11.50;75.40;;;;;;4922872;29;19918;-79
2022/11/18 06:40:50;;;;;;;;;;;11.50;75.40;;;;;;4955068;28;20298;-79
2022/11/18 06:48:46;;;;;;;;;;;11.50;75.40;;;;;;4955464;28;19934;-79
2022/11/18 06:51:14;;;;;;;;;;;11.50;75.40;;;;;;4926289;29;19919;-80
2022/11/18 06:53:40;;;;;;;;;;;11.40;75.40;;;;;;4954288;28;20295;-78
2022/11/18 06:56:06;;;;;;;;;;;11.40;75.30;;;;;;4955397;28;19907;-78
2022/11/18 06:58:32;;;;;;;;;;;11.40;75.30;;;;;;4954068;29;19910;-78
2022/11/18 07:01:07;;;;;;;;;;;11.50;75.40;;;;;;4954616;28;20254;-80
2022/11/18 07:03:33;;;;;;;;;;;11.40;75.30;;;;;;4938911;29;19915;-79
2022/11/18 07:05:58;;;;;;;;;;;11.40;75.30;;;;;;4954421;29;19914;-79
2022/11/18 07:08:24;;;;;;;;;;;11.40;75.30;;;;;;4954238;29;20335;-79
2022/11/18 07:10:53;;;;;;;;;;;11.40;75.30;;;;;;4922946;29;19921;-79
2022/11/18 07:13:18;;;;;;;;;;;11.40;75.40;;;;;;4954568;28;20324;-80
2022/11/18 07:15:44;;;;;;;;;;;11.40;75.30;;;;;;4922408;29;19981;-80
2022/11/18 07:18:10;;;;;;;;;;;11.40;75.30;;;;;;4938689;29;19962;-78
2022/11/18 07:20:35;;;;;;;;;;;11.40;75.30;;;;;;4922631;29;19922;-79
2022/11/18 07:23:01;;;;;;;;;;;11.40;75.30;;;;;;4956102;28;19930;-79
2022/11/18 07:25:26;;;;;;;;;;;11.40;75.30;;;;;;4954341;28;19922;-81
2022/11/18 07:27:52;;;;;;;;;;;11.30;75.30;;;;;;4955265;28;20323;-81
2022/11/18 07:30:18;;;;;;;;;;;11.30;75.30;;;;;;4959252;28;19918;-80
2022/11/18 07:32:43;;;;;;;;;;;11.30;75.30;;;;;;4941693;29;20303;-80
2022/11/18 07:35:09;;;;;;;;;;;11.30;75.30;;;;;;4958441;29;19915;-81
2022/11/18 07:37:35;;;;;;;;;;;11.30;75.30;;;;;;4942694;29;19923;-81
2022/11/18 07:40:00;;;;;;;;;;;11.30;75.30;;;;;;4957687;29;19914;-79
2022/11/18 07:42:26;;;;;;;;;;;11.30;75.30;;;;;;4942066;29;19918;-79
2022/11/18 07:44:52;;;;;;;;;;;11.30;75.30;;;;;;4957886;28;19907;-81
2022/11/18 07:47:17;;;;;;;;;;;11.30;75.30;;;;;;4957831;28;19919;-81
2022/11/18 07:49:43;;;;;;;;;;;11.30;75.30;;;;;;4941641;29;19919;-80
2022/11/18 07:52:09;;;;;;;;;;;11.30;75.30;;;;;;4941814;29;20279;-82
2022/11/18 07:54:34;;;;;;;;;;;11.20;75.30;;;;;;4942319;29;19930;-81
2022/11/18 07:57:00;;;;;;;;;;;11.20;75.30;;;;;;4941769;29;19922;-78
2022/11/18 07:59:26;;;;;;;;;;;11.20;75.30;;;;;;4926188;29;20414;-79
2022/11/18 08:01:51;;;;;;;;;;;11.20;75.30;;;;;;4942137;29;20292;-80
2022/11/18 08:04:17;;;;;;;;;;;11.20;75.30;;;;;;4925903;29;19921;-81
2022/11/18 08:06:43;;;;;;;;;;;11.20;75.30;;;;;;4957868;28;19970;-81
2022/11/18 08:09:08;;;;;;;;;;;11.20;75.30;;;;;;4957572;28;19930;-81
2022/11/18 08:11:34;;;;;;;;;;;11.20;75.30;;;;;;4941625;29;19965;-81
2022/11/18 08:14:00;;;;;;;;;;;11.20;75.30;;;;;;4957152;29;19929;-79
2022/11/18 08:16:26;;;;;;;;;;;11.20;75.30;;;;;;4941659;28;20248;-81
2022/11/18 08:18:52;;;;;;;;;;;11.20;75.30;;;;;;4957590;28;19985;-83
2022/11/18 08:21:18;;;;;;;;;;;11.10;75.30;;;;;;4958251;28;20010;-82
2022/11/18 08:23:51;;;;;;;;;;;11.10;75.90;;;;;;4957432;28;19919;-82
2022/11/18 08:26:17;;;;;;;;;;;11.10;75.30;;;;;;4925787;29;19925;-82
2022/11/18 08:28:43;;;;;;;;;;;11.10;75.30;;;;;;4957340;28;19919;-82
2022/11/18 08:31:10;;;;;;;;;;;11.10;75.30;;;;;;4941511;28;19921;-83
2022/11/18 08:33:36;;;;;;;;;;;11.10;75.30;;;;;;4958360;28;19910;-82
2022/11/18 08:36:21;;;;;;;;;;;11.10;75.30;;;;;;4956902;28;20005;-82
2022/11/18 08:38:47;;;;;;;;;;;11.10;75.30;;;;;;4957628;28;20005;-81
2022/11/18 08:41:13;;;;;;;;;;;11.10;75.30;;;;;;4957290;29;19961;-82
2022/11/18 08:43:39;;;;;;;;;;;11.10;75.30;;;;;;4956851;28;19922;-82
2022/11/18 08:46:04;;;;;;;;;;;11.10;75.30;;;;;;4958075;28;20392;-82
2022/11/18 08:48:30;;;;;;;;;;;11.10;75.30;;;;;;4957007;28;20268;-82
2022/11/18 08:50:56;;;;;;;;;;;11.10;75.30;;;;;;4957464;28;20233;-81
2022/11/18 08:53:22;;;;;;;;;;;11.10;75.30;;;;;;4956882;29;20001;-81
2022/11/18 08:55:53;;;;;;;;;;;11.10;75.30;;;;;;4958205;28;19914;-81
2022/11/18 08:58:19;;;;;;;;;;;11.10;75.30;;;;;;4956588;29;20076;-82
2022/11/18 09:00:44;;;;;;;;;;;11.10;75.30;;;;;;4924836;29;20398;-81
2022/11/18 09:03:10;;;;;;;;;;;11.10;75.30;;;;;;4956362;29;19925;-82
2022/11/18 09:05:35;;;;;;;;;;;11.10;75.30;;;;;;4957558;28;20005;-81
2022/11/18 09:08:01;;;;;;;;;;;11.10;75.30;;;;;;4940697;29;20025;-81
2022/11/18 09:10:27;;;;;;;;;;;11.10;75.30;;;;;;4956540;29;20359;-81
2022/11/18 09:12:53;;;;;;;;;;;11.10;75.30;;;;;;4940355;29;19918;-81
2022/11/18 09:15:18;;;;;;;;;;;11.10;75.30;;;;;;4940729;28;19938;-81
2022/11/18 09:17:44;;;;;;;;;;;11.10;75.30;;;;;;4956302;28;20378;-81
2022/11/18 09:20:10;;;;;;;;;;;11.10;75.30;;;;;;4940079;28;19915;-82
2022/11/18 09:22:36;;;;;;;;;;;11.10;75.30;;;;;;4941134;29;19925;-81
2022/11/18 09:25:02;;;;;;;;;;;11.10;75.40;;;;;;4957138;28;19910;-81
2022/11/18 09:27:27;;;;;;;;;;;11.10;75.40;;;;;;4957178;28;20370;-81
2022/11/18 09:29:53;;;;;;;;;;;11.10;75.40;;;;;;4924341;29;19997;-81
2022/11/18 09:32:19;;;;;;;;;;;11.10;75.40;;;;;;4956189;28;19922;-81
2022/11/18 09:34:44;;;;;;;;;;;11.10;75.40;;;;;;4940064;29;20442;-81
2022/11/18 09:37:10;;;;;;;;;;;11.10;75.40;;;;;;4940281;29;19946;-81
2022/11/18 09:39:36;;;;;;;;;;;11.20;75.50;;;;;;4940286;29;19919;-81
2022/11/18 09:42:18;;;;;;;;;;;11.20;75.50;;;;;;4956876;28;20004;-80
2022/11/18 09:44:44;;;;;;;;;;;11.20;75.50;;;;;;4956536;29;19980;-81
2022/11/18 09:47:12;;;;;;;;;;;11.20;75.50;;;;;;4955696;28;20256;-81
2022/11/18 09:49:39;;;;;;;;;;;11.20;75.50;;;;;;4955335;29;19945;-81
2022/11/18 09:52:11;;;;;;;;;;;11.20;75.50;;;;;;4955000;28;19914;-82
2022/11/18 09:54:37;;;;;;;;;;;11.20;75.50;;;;;;4955664;29;20443;-81
2022/11/18 09:57:10;;;;;;;;;;;11.20;75.50;;;;;;4957460;28;20017;-82
2022/11/18 09:59:36;;;;;;;;;;;11.20;75.50;;;;;;4955635;28;20009;-81
2022/11/18 10:02:08;;;;;;;;;;;11.20;75.50;;;;;;4923585;29;19942;-83
2022/11/18 10:04:34;;;;;;;;;;;11.20;75.50;;;;;;4939525;29;19918;-82
2022/11/18 10:07:04;;;;;;;;;;;11.20;75.60;;;;;;4956641;29;20399;-82
2022/11/18 10:09:38;;;;;;;;;;;11.30;75.60;;;;;;4955480;29;19923;-82
2022/11/18 10:12:17;;;;;;;;;;;11.30;75.60;;;;;;4940161;29;19919;-82
2022/11/18 10:14:52;;;;;;;;;;;11.30;75.60;;;;;;4956827;29;19929;-83
2022/11/18 10:17:30;;;;;;;;;;;11.30;75.60;;;;;;4955483;29;20009;-82
2022/11/18 10:20:02;;;;;;;;;;;11.30;75.60;;;;;;4955275;28;20368;-81
2022/11/18 10:22:31;;;;;;;;;;;11.30;75.60;;;;;;4955210;28;20415;-81
2022/11/18 10:24:59;;;;;;;;;;;11.40;75.70;;;;;;4954701;28;19918;-81
2022/11/18 10:27:36;;;;;;;;;;;11.30;76.20;;;;;;4955070;29;20319;-81
2022/11/18 10:30:10;;;;;;;;;;;11.40;75.70;;;;;;4956389;28;19994;-81
2022/11/18 10:32:51;;;;;;;;;;;11.40;75.70;;;;;;4954754;29;20355;-82
2022/11/18 10:35:33;;;;;;;;;;;11.40;75.70;;;;;;4955197;28;20275;-81
2022/11/18 10:38:00;;;;;;;;;;;11.40;75.70;;;;;;4954910;28;19979;-82
2022/11/18 10:40:28;;;;;;;;;;;11.40;75.70;;;;;;4956151;28;19957;-82
2022/11/18 10:42:53;;;;;;;;;;;11.50;75.70;;;;;;4955638;28;19914;-82
2022/11/18 10:45:22;;;;;;;;;;;11.40;75.70;;;;;;4955771;28;20323;-82
2022/11/18 10:48:08;;;;;;;;;;;11.50;75.70;;;;;;4955830;28;20012;-83
2022/11/18 10:50:38;;;;;;;;;;;11.50;75.80;;;;;;4951290;29;19918;-82
2022/11/18 10:53:05;;;;;;;;;;;11.50;75.70;;;;;;4954474;29;19958;-82
2022/11/18 10:55:31;;;;;;;;;;;11.50;75.70;;;;;;4938437;29;19910;-83
2022/11/18 10:58:15;;;;;;;;;;;11.50;75.70;;;;;;4955370;29;19914;-82
2022/11/18 11:00:49;;;;;;;;;;;11.50;75.70;;;;;;4954693;28;20057;-83
2022/11/18 11:03:21;;;;;;;;;;;11.60;75.80;;;;;;4956257;28;19914;-82
2022/11/18 11:05:47;;;;;;;;;;;11.60;75.80;;;;;;4954577;29;19922;-81
2022/11/18 11:08:20;;;;;;;;;;;11.60;75.80;;;;;;4938274;28;19922;-82
2022/11/18 11:10:53;;;;;;;;;;;11.60;75.80;;;;;;4954877;28;19921;-82
2022/11/18 11:13:19;;;;;;;;;;;11.60;75.80;;;;;;4955071;28;19921;-81
2022/11/18 11:15:47;;;;;;;;;;;11.60;75.80;;;;;;4955458;28;20376;-82
2022/11/18 11:18:42;;;;;;;;;;;11.70;75.80;;;;;;4954904;28;19930;-82
2022/11/18 11:21:10;;;;;;;;;;;11.70;75.80;;;;;;4954220;29;19921;-82
2022/11/18 11:23:36;;;;;;;;;;;11.70;75.80;;;;;;4954341;28;19910;-81
2022/11/18 11:26:21;;;;;;;;;;;11.70;75.80;;;;;;4955045;29;20032;-82
2022/11/18 11:29:12;;;;;;;;;;;11.70;75.80;;;;;;4955758;28;20013;-82
2022/11/18 11:31:52;;;;;;;;;;;11.70;75.80;;;;;;4953899;29;20347;-82
2022/11/18 11:34:20;;;;;;;;;;;11.70;75.80;;;;;;4954623;29;19915;-82
2022/11/18 11:36:52;;;;;;;;;;;11.70;75.80;;;;;;4954008;28;19918;-82
2022/11/18 11:39:36;;;;;;;;;;;11.70;75.80;;;;;;4954934;29;20013;-81
2022/11/18 11:42:17;;;;;;;;;;;11.70;75.80;;;;;;4954135;29;19915;-82
2022/11/18 11:44:45;;;;;;;;;;;11.80;75.90;;;;;;4954634;29;20004;-82
2022/11/18 11:50:11;;;;;;;;;;;11.80;75.90;;;;;;4955291;28;19929;-82
2022/11/18 11:52:52;;;;;;;;;;;11.80;75.90;;;;;;4954141;29;20325;-82
2022/11/18 11:55:27;;;;;;;;;;;11.80;75.90;;;;;;4954323;28;20283;-82
2022/11/18 11:58:02;;;;;;;;;;;11.90;76.00;;;;;;4954305;28;19915;-83
2022/11/18 12:00:28;;;;;;;;;;;11.90;76.00;;;;;;4954102;29;20366;-81
2022/11/18 12:03:13;;;;;;;;;;;11.90;76.00;;;;;;4938070;29;20261;-82
2022/11/18 12:05:41;;;;;;;;;;;11.90;76.00;;;;;;4953895;29;19918;-81
2022/11/18 12:08:13;;;;;;;;;;;11.90;76.00;;;;;;4953958;29;19976;-82
2022/11/18 12:10:44;;;;;;;;;;;11.90;76.00;;;;;;4955279;28;19961;-81
2022/11/18 12:13:12;;;;;;;;;;;11.90;75.90;;;;;;4955618;28;19914;-82
2022/11/18 12:15:38;;;;;;;;;;;11.90;75.90;;;;;;4956950;28;19929;-82
2022/11/18 12:18:16;;;;;;;;;;;12.00;76.00;;;;;;4958444;28;20390;-83
2022/11/18 12:20:42;;;;;;;;;;;12.00;76.00;;;;;;4958120;29;19915;-83
2022/11/18 12:23:13;;;;;;;;;;;12.00;76.00;;;;;;4957529;28;19910;-83
2022/11/18 12:25:45;;;;;;;;;;;12.00;75.90;;;;;;4958476;28;19921;-84
2022/11/18 12:28:21;;;;;;;;;;;12.00;76.00;;;;;;4958115;28;19943;-84
2022/11/18 12:30:46;;;;;;;;;;;12.00;76.00;;;;;;4942289;29;19930;-83
2022/11/18 12:33:14;;;;;;;;;;;12.10;76.00;;;;;;4942132;28;19914;-84
2022/11/18 12:35:45;;;;;;;;;;;12.10;76.00;;;;;;4957669;28;19918;-83
2022/11/18 12:38:26;;;;;;;;;;;12.10;76.00;;;;;;4958645;28;19914;-83
2022/11/18 12:40:51;;;;;;;;;;;12.10;76.00;;;;;;4941648;29;20390;-83
2022/11/18 12:43:48;;;;;;;;;;;12.10;75.90;;;;;;4925288;29;19946;-84
2022/11/18 12:46:26;;;;;;;;;;;12.20;76.70;;;;;;4957556;29;19982;-84
2022/11/18 12:48:51;;;;;;;;;;;12.20;76.00;;;;;;4957323;29;19922;-84
2022/11/18 12:51:20;;;;;;;;;;;12.20;76.00;;;;;;4958380;28;20403;-84
2022/11/18 12:53:46;;;;;;;;;;;12.20;76.00;;;;;;4957341;28;19921;-84
2022/11/18 12:56:18;;;;;;;;;;;12.20;76.00;;;;;;4957287;28;20355;-85
2022/11/18 12:58:51;;;;;;;;;;;12.20;76.00;;;;;;4957743;29;20347;-84
2022/11/18 13:01:21;;;;;;;;;;;12.20;76.00;;;;;;4958252;28;19962;-84
2022/11/18 13:03:48;;;;;;;;;;;12.30;76.00;;;;;;4956802;28;19915;-84
2022/11/18 13:06:23;;;;;;;;;;;12.30;76.00;;;;;;4956926;29;20308;-84
2022/11/18 13:08:54;;;;;;;;;;;12.30;76.00;;;;;;4956657;29;19922;-84
2022/11/18 13:19:35;;;;;;;;;;;12.40;76.60;;;;;;4956057;29;20005;-84
2022/11/18 13:24:50;;;;;;;;;;;12.40;76.00;;;;;;4956344;28;19926;-83
2022/11/18 13:27:35;;;;;;;;;;;12.40;76.00;;;;;;4939865;29;19922;-84
2022/11/18 13:30:02;;;;;;;;;;;12.40;76.00;;;;;;4955851;28;20009;-83
2022/11/18 13:32:41;;;;;;;;;;;12.40;76.00;;;;;;4957310;29;20295;-84
2022/11/18 13:35:12;;;;;;;;;;;12.40;75.90;;;;;;4957197;28;20019;-84
2022/11/18 13:37:52;;;;;;;;;;;12.50;76.00;;;;;;4940988;29;19925;-84
2022/11/18 13:40:27;;;;;;;;;;;12.40;75.90;;;;;;4957017;29;19919;-84
2022/11/18 13:42:52;;;;;;;;;;;12.50;75.90;;;;;;4956034;29;19914;-83
2022/11/18 13:45:18;;;;;;;;;;;12.50;76.00;;;;;;4955857;28;20337;-84
2022/11/18 13:47:44;;;;;;;;;;;12.50;75.90;;;;;;4940108;29;19921;-82
2022/11/18 13:50:10;;;;;;;;;;;12.60;76.00;;;;;;4955901;28;20001;-84
2022/11/18 13:52:40;;;;;;;;;;;12.60;75.90;;;;;;4956415;29;19958;-84
2022/11/18 13:55:08;;;;;;;;;;;12.60;75.90;;;;;;4956133;28;19914;-83
2022/11/18 13:57:35;;;;;;;;;;;12.60;75.90;;;;;;4955935;28;19947;-84
2022/11/18 14:00:04;;;;;;;;;;;12.60;75.90;;;;;;4955651;29;19919;-84
2022/11/18 14:02:30;;;;;;;;;;;12.70;76.60;;;;;;4956943;28;19953;-84
2022/11/18 14:04:57;;;;;;;;;;;12.70;75.90;;;;;;4955520;29;19926;-84
2022/11/18 14:07:31;;;;;;;;;;;12.70;75.90;;;;;;4955742;28;19915;-84
2022/11/18 14:09:59;;;;;;;;;;;12.70;76.00;;;;;;4956424;28;19922;-83
2022/11/18 14:12:27;;;;;;;;;;;12.70;75.90;;;;;;4957032;28;19910;-83
2022/11/18 14:15:11;;;;;;;;;;;12.70;75.90;;;;;;4939536;29;19921;-81
2022/11/18 14:17:37;;;;;;;;;;;12.70;75.90;;;;;;4956497;28;19914;-83
2022/11/18 14:20:06;;;;;;;;;;;12.70;75.90;;;;;;4955371;28;19911;-81
2022/11/18 14:22:33;;;;;;;;;;;12.80;75.90;;;;;;4955650;28;19937;-80
2022/11/18 14:25:00;;;;;;;;;;;12.80;75.90;;;;;;4940237;28;19915;-81
2022/11/18 14:27:35;;;;;;;;;;;12.80;75.90;;;;;;4955149;28;19911;-81
2022/11/18 14:30:21;;;;;;;;;;;12.80;75.90;;;;;;4955301;28;20345;-82
2022/11/18 14:33:02;;;;;;;;;;;12.80;75.90;;;;;;4955010;29;20282;-82
2022/11/18 14:35:28;;;;;;;;;;;12.80;75.90;;;;;;4955221;29;19915;-82
2022/11/18 14:37:54;;;;;;;;;;;12.90;75.90;;;;;;4954748;28;19918;-82
2022/11/18 14:40:20;;;;;;;;;;;12.90;75.90;;;;;;4938928;29;19933;-82
2022/11/18 14:42:45;;;;;;;;;;;12.90;75.90;;;;;;4939290;29;20014;-83
2022/11/18 14:45:11;;;;;;;;;;;12.90;75.80;;;;;;4923154;29;19973;-83
2022/11/18 14:47:38;;;;;;;;;;;12.90;75.80;;;;;;4956192;28;20033;-83
2022/11/18 14:50:07;;;;;;;;;;;12.90;75.80;;;;;;4955631;28;19910;-83
2022/11/18 14:52:33;;;;;;;;;;;13.00;75.80;;;;;;4956117;28;19921;-83